Home   Weather   Germany   Seevetal   Past weeks
Flag for Germany

Past Weather in Seevetal, Lower Saxony, Germany — Yesterday and Last 2 Weeks

Currently: 75 °F. Thundershowers. Passing clouds. (Weather station: Hamburg-Finkenwerder, Germany). See more current weather

Past Weather in Seevetal — Graph

°F

Seevetal Temperature Yesterday

Maximum temperature yesterday: 82 °F (at 1:50 pm)
Minimum temperature yesterday: 66 °F (at 5:20 am)
Average temperature yesterday: 74 °F

High & Low Weather Summary for the Past Weeks

 TemperatureHumidityPressure
High84 °F (Jul 14, 2:20 pm)100% (Jul 17, 2:50 am)30.21 "Hg (Jul 17, 2:50 am)
Low52 °F (Jul 20, 3:20 am)37% (Jul 24, 5:50 pm)29.71 "Hg (Jul 14, 1:50 pm)
Average69 °F74%29.98 "Hg
* Reported Jul 11 7:20 pm — Jul 26 7:20 pm, Seevetal. Weather by CustomWeather, © 2021

Note: Actual official high and low records may vary slightly from our data, if they occured in-between our weather recording intervals... More about our weather records

Seevetal Weather History for the Previous 24 Hours

Scroll right to see more
 ConditionsComfort  
Time TempWeatherWind HumidityBarometerVisibility
7:20 pm
Mon, Jul 26
79 °FPassing clouds.8 mph58%29.77 "HgN/A
6:50 pm81 °FPassing clouds.8 mph54%29.77 "HgN/A
6:20 pm82 °FPassing clouds.9 mph55%29.77 "HgN/A
5:50 pm81 °FScattered clouds.6 mph51%29.77 "HgN/A
5:20 pm84 °FPassing clouds.6 mph43%29.77 "HgN/A
4:50 pm81 °FSprinkles. Passing clouds.6 mph51%29.80 "HgN/A
4:20 pm81 °FPassing clouds.7 mph51%29.80 "HgN/A
3:50 pm82 °FPassing clouds.6 mph45%29.80 "HgN/A
3:20 pm81 °FPassing clouds.3 mph48%29.80 "HgN/A
2:50 pm82 °FPassing clouds.6 mph48%29.80 "HgN/A
2:20 pm81 °FPassing clouds.6 mph51%29.80 "HgN/A
1:50 pm77 °FSunny.3 mph61%29.83 "Hg10 mi
1:20 pm75 °FPassing clouds.6 mph65%29.83 "HgN/A
12:50 pm73 °FPassing clouds.7 mph74%29.83 "HgN/A
12:20 pm73 °FPassing clouds.5 mph65%29.83 "HgN/A
11:50 am73 °FPassing clouds.5 mph65%29.83 "HgN/A
11:20 am73 °FPassing clouds.7 mph65%29.83 "HgN/A
10:50 am73 °FPassing clouds.3 mph69%29.83 "HgN/A
10:20 am72 °FPassing clouds.5 mph73%29.83 "HgN/A
9:20 am70 °FPassing clouds.3 mph78%29.80 "HgN/A
8:50 am68 °FSunny.5 mph83%29.80 "Hg10 mi
8:20 am68 °FSunny.2 mph83%29.80 "Hg10 mi
7:50 am66 °FSunny.3 mph88%29.80 "Hg10 mi
7:20 am68 °FSunny.1 mph83%29.80 "Hg10 mi
6:50 am66 °FSunny.2 mph88%29.80 "Hg10 mi
6:20 am66 °FSunny.1 mph88%29.80 "Hg10 mi
5:50 am64 °FPassing clouds.3 mph88%29.80 "HgN/A
5:20 am63 °FClear.2 mph94%29.80 "HgN/A
4:50 am64 °FClear.3 mph88%29.80 "HgN/A
4:20 am64 °FPassing clouds.2 mph88%29.80 "Hg5 mi
3:50 am64 °FPassing clouds.3 mph88%29.80 "HgN/A
3:20 am66 °FPassing clouds.6 mph88%29.77 "HgN/A
2:50 am64 °FClear.2 mph88%29.77 "Hg6 mi
2:20 am66 °FClear.1 mph88%29.77 "Hg6 mi
1:50 am68 °FClear.1 mph83%29.77 "HgN/A
1:20 am68 °FClear.2 mph83%29.80 "HgN/A
12:50 am70 °FClear.5 mph78%29.80 "HgN/A
12:20 am68 °FPassing clouds.2 mph83%29.80 "HgN/A
11:50 pm
Sun, Jul 25
70 °FPassing clouds.2 mph73%29.80 "HgN/A
11:20 pm72 °FPassing clouds.5 mph73%29.80 "HgN/A
10:50 pm72 °FClear.5 mph69%29.80 "HgN/A
10:20 pm73 °FPassing clouds.5 mph65%29.80 "HgN/A
9:20 pm75 °FPartly sunny.3 mph61%29.80 "HgN/A
8:50 pm77 °FBroken clouds.3 mph57%29.80 "HgN/A
8:20 pm77 °FPassing clouds.8 mph57%29.77 "HgN/A
Weather by CustomWeather, © 2021

See weather overview